Time;durP1;ratioP1;P1;durP2;ratioP2;P2;SDS_P1;SDS_P2;PMS_P1;PMS_P2;Temp;Humidity;BMP_temperature;BMP_pressure;BME280_temperature;BME280_humidity;BME280_pressure;Samples;Min_cycle;Max_cycle;Signal;HPM_P1;HPM_P2
2023/12/23 00:02:26;;;;;;;9.40;1.60;;;;;;;7.63;76.09;98796.56;5032507;28;20049;-76
2023/12/23 00:04:52;;;;;;;6.82;1.30;;;;;;;7.65;76.38;98812.19;5031803;28;20405;-74
2023/12/23 00:07:19;;;;;;;7.95;1.48;;;;;;;7.65;75.87;98812.19;5032136;28;20060;-78
2023/12/23 00:09:47;;;;;;;6.45;1.02;;;;;;;7.66;76.03;98804.22;5024731;28;20050;-77
2023/12/23 00:12:14;;;;;;;7.90;1.30;;;;;;;7.68;76.10;98807.63;5014109;28;20049;-78
2023/12/23 00:14:40;;;;;;;8.82;1.27;;;;;;;7.69;76.08;98811.91;5031998;28;20546;-76
2023/12/23 00:17:07;;;;;;;8.82;1.40;;;;;;;7.71;76.33;98796.13;5014235;28;20053;-76
2023/12/23 00:19:33;;;;;;;8.48;1.58;;;;;;;7.73;76.19;98809.13;5029042;28;20513;-76
2023/12/23 00:22:00;;;;;;;11.25;1.65;;;;;;;7.74;75.85;98802.94;4994746;28;20071;-76
2023/12/23 00:24:29;;;;;;;9.75;1.75;;;;;;;7.76;76.07;98812.38;4994987;28;20075;-78
2023/12/23 00:26:57;;;;;;;8.25;1.33;;;;;;;7.76;76.34;98801.91;5012252;28;20050;-76
2023/12/23 00:29:24;;;;;;;11.48;1.70;;;;;;;7.77;76.17;98789.63;5012042;28;20053;-76
2023/12/23 00:31:51;;;;;;;7.10;1.65;;;;;;;7.79;76.13;98791.25;5030134;28;20514;-77
2023/12/23 00:34:18;;;;;;;11.45;1.60;;;;;;;7.79;75.99;98798.25;5031607;28;20049;-76
2023/12/23 00:36:45;;;;;;;8.60;1.75;;;;;;;7.79;76.37;98817.44;5014342;28;20137;-75
2023/12/23 00:39:12;;;;;;;8.43;1.98;;;;;;;7.81;76.29;98810.31;5031535;28;20176;-76
2023/12/23 00:41:39;;;;;;;4.53;1.35;;;;;;;7.82;76.23;98806.75;5017380;28;20065;-74
2023/12/23 00:44:06;;;;;;;11.50;1.55;;;;;;;7.82;76.50;98804.13;4994716;28;20085;-76
2023/12/23 00:46:32;;;;;;;11.40;1.75;;;;;;;7.84;76.15;98803.22;4994603;28;20490;-76
2023/12/23 00:48:59;;;;;;;12.02;1.42;;;;;;;7.87;76.32;98810.88;5011695;28;20056;-75
2023/12/23 00:51:26;;;;;;;7.03;1.45;;;;;;;7.86;76.10;98804.81;5020726;28;20089;-77
2023/12/23 00:53:52;;;;;;;8.85;1.45;;;;;;;7.87;76.02;98809.13;5031797;28;20577;-77
2023/12/23 00:56:20;;;;;;;9.32;1.60;;;;;;;7.86;75.83;98804.81;5031471;28;20469;-77
2023/12/23 00:58:48;;;;;;;10.93;2.03;;;;;;;7.87;76.10;98811.72;5030334;28;20046;-76
2023/12/23 01:01:15;;;;;;;16.73;2.45;;;;;;;7.86;75.81;98815.28;5008441;28;20176;-77
2023/12/23 01:03:43;;;;;;;8.80;1.38;;;;;;;7.85;75.88;98818.81;5011560;28;20081;-74
2023/12/23 01:06:10;;;;;;;9.32;1.90;;;;;;;7.84;75.80;98819.78;5011933;28;20664;-75
2023/12/23 01:08:36;;;;;;;8.60;1.70;;;;;;;7.82;75.78;98809.38;5011236;28;20520;-75
2023/12/23 01:11:03;;;;;;;8.63;1.70;;;;;;;7.82;75.70;98809.38;5011869;28;20316;-76
2023/12/23 01:13:30;;;;;;;13.95;1.90;;;;;;;7.81;75.68;98810.31;5030298;28;20103;-76
2023/12/23 01:15:56;;;;;;;13.05;2.00;;;;;;;7.80;75.65;98818.28;5029922;28;20045;-77
2023/12/23 01:18:23;;;;;;;10.60;2.10;;;;;;;7.79;75.59;98822.69;5031081;28;20049;-76
2023/12/23 01:20:50;;;;;;;15.23;1.90;;;;;;;7.78;75.56;98812.28;5030124;28;20099;-76
2023/12/23 01:23:17;;;;;;;11.38;1.65;;;;;;;7.77;75.45;98810.59;5015093;28;20132;-75
2023/12/23 01:25:45;;;;;;;14.75;2.00;;;;;;;7.77;75.77;98813.22;5012451;28;20129;-75
2023/12/23 01:28:11;;;;;;;9.75;1.58;;;;;;;7.77;75.92;98814.06;5011493;28;20064;-77
2023/12/23 01:30:39;;;;;;;9.10;2.42;;;;;;;7.77;75.40;98813.22;5011109;28;20647;-76
2023/12/23 01:33:07;;;;;;;12.15;2.30;;;;;;;7.77;75.55;98811.44;5011242;28;20081;-77
2023/12/23 01:35:34;;;;;;;10.77;2.33;;;;;;;7.78;75.66;98818.34;4993987;28;20089;-79
2023/12/23 01:38:01;;;;;;;11.30;2.33;;;;;;;7.79;76.09;98817.44;5007926;28;20128;-78
2023/12/23 01:40:33;;;;;;;12.07;1.92;;;;;;;7.79;75.76;98812.22;5013898;28;20116;-75
2023/12/23 01:42:59;;;;;;;8.15;2.00;;;;;;;7.80;75.84;98813.88;5030666;28;20506;-77
2023/12/23 01:45:26;;;;;;;16.70;2.90;;;;;;;7.81;75.88;98809.47;5030632;28;20140;-76
2023/12/23 01:47:54;;;;;;;9.93;1.48;;;;;;;7.82;75.67;98806.75;5030086;28;20059;-75
2023/12/23 01:50:25;;;;;;;7.63;1.70;;;;;;;7.82;75.18;98800.69;5030848;28;20045;-77
2023/12/23 01:52:55;;;;;;;9.52;1.65;;;;;;;7.85;75.68;98799.66;5013203;28;20553;-76
2023/12/23 01:55:26;;;;;;;15.15;1.73;;;;;;;7.85;75.50;98802.28;5030654;28;20076;-75
2023/12/23 01:57:56;;;;;;;13.48;2.20;;;;;;;7.86;74.82;98801.34;5029147;28;20628;-76
2023/12/23 02:00:23;;;;;;;7.75;1.88;;;;;;;7.87;75.56;98800.41;5030209;28;20494;-76
2023/12/23 02:02:49;;;;;;;10.65;1.70;;;;;;;7.87;75.80;98796.00;5030704;28;20045;-75
2023/12/23 02:05:17;;;;;;;8.23;1.60;;;;;;;7.87;75.40;98806.50;5012997;28;20505;-77
2023/12/23 02:07:45;;;;;;;10.15;2.00;;;;;;;7.88;75.99;98804.69;5008739;28;20050;-76
2023/12/23 02:10:13;;;;;;;9.23;2.05;;;;;;;7.87;75.62;98793.38;4993204;28;20066;-76
2023/12/23 02:13:08;;;;;;;7.15;1.50;;;;;;;7.86;73.69;98796.09;5010775;28;20061;-76
2023/12/23 02:15:42;;;;;;;14.38;1.98;;;;;;;7.88;75.35;98781.97;5010987;28;20046;-78
2023/12/23 02:18:09;;;;;;;6.28;1.27;;;;;;;7.91;75.68;98788.78;4997397;28;20122;-79
2023/12/23 02:20:37;;;;;;;10.20;1.35;;;;;;;7.91;75.78;98788.78;5030002;28;20132;-77
2023/12/23 02:23:04;;;;;;;17.15;1.88;;;;;;;7.90;75.78;98790.59;5030693;28;20108;-75
2023/12/23 02:25:31;;;;;;;9.25;1.50;;;;;;;7.90;75.59;98781.88;5030530;28;20061;-76
2023/12/23 02:28:06;;;;;;;10.57;2.45;;;;;;;7.87;74.26;98780.28;5013437;28;20895;-77
2023/12/23 02:30:37;;;;;;;11.35;2.03;;;;;;;7.91;75.56;98780.94;5014537;28;20443;-77
2023/12/23 02:33:04;;;;;;;9.45;2.55;;;;;;;7.90;75.83;98777.50;4997031;28;20053;-75
2023/12/23 02:35:30;;;;;;;13.25;2.08;;;;;;;7.91;75.81;98765.22;5014761;28;20136;-78
2023/12/23 02:37:57;;;;;;;7.97;1.48;;;;;;;7.91;75.76;98766.06;5014171;28;20487;-76
2023/12/23 02:40:23;;;;;;;11.35;1.95;;;;;;;7.91;75.71;98762.59;5012443;28;20411;-77
2023/12/23 02:42:50;;;;;;;9.30;1.48;;;;;;;7.91;75.83;98755.59;5016356;28;20132;-75
2023/12/23 02:45:17;;;;;;;8.88;1.83;;;;;;;7.92;75.77;98765.13;5032825;28;20045;-78
2023/12/23 02:47:44;;;;;;;9.00;1.63;;;;;;;7.93;75.85;98753.69;5033779;28;20049;-76
2023/12/23 02:50:11;;;;;;;8.35;1.70;;;;;;;7.93;75.48;98761.56;5004418;28;20397;-77
2023/12/23 02:52:38;;;;;;;6.85;1.63;;;;;;;7.94;75.62;98755.41;5014008;28;20765;-77
2023/12/23 02:55:05;;;;;;;13.07;1.90;;;;;;;7.95;75.64;98743.97;5014104;28;20137;-76
2023/12/23 02:57:31;;;;;;;12.70;1.90;;;;;;;7.97;75.69;98735.16;5013819;28;20577;-78
2023/12/23 02:59:58;;;;;;;7.03;1.38;;;;;;;7.96;75.25;98736.94;5021045;28;20041;-77
2023/12/23 03:02:25;;;;;;;11.60;1.92;;;;;;;7.97;75.92;98732.53;5015670;28;20103;-76
2023/12/23 03:04:52;;;;;;;10.75;1.88;;;;;;;7.95;75.59;98740.50;5015797;28;20054;-77
2023/12/23 03:07:19;;;;;;;5.78;1.48;;;;;;;7.97;75.69;98743.03;5033502;28;20123;-76
2023/12/23 03:09:46;;;;;;;11.15;2.28;;;;;;;7.97;75.92;98738.63;5030476;28;20212;-76
2023/12/23 03:12:12;;;;;;;11.68;2.08;;;;;;;7.98;76.05;98736.84;5014243;28;20537;-77
2023/12/23 03:14:40;;;;;;;11.52;1.38;;;;;;;7.97;75.89;98736.03;5013552;28;20104;-76
2023/12/23 03:17:06;;;;;;;8.77;1.70;;;;;;;7.97;76.10;98733.41;4995755;28;20188;-75
2023/12/23 03:19:33;;;;;;;10.02;1.95;;;;;;;7.99;75.98;98738.53;5013513;28;20054;-76
2023/12/23 03:22:00;;;;;;;9.20;1.52;;;;;;;7.98;75.78;98742.94;5031029;28;20077;-79
2023/12/23 03:24:27;;;;;;;8.95;1.92;;;;;;;8.00;75.86;98745.47;5015622;28;20050;-77
2023/12/23 03:26:54;;;;;;;7.28;1.90;;;;;;;7.98;75.79;98732.44;5033525;28;20061;-77
2023/12/23 03:29:20;;;;;;;11.43;1.70;;;;;;;7.99;75.90;98722.81;5032940;28;20053;-76
2023/12/23 03:31:47;;;;;;;11.80;1.77;;;;;;;7.99;75.89;98723.66;5001816;28;20042;-76
2023/12/23 03:34:13;;;;;;;11.70;1.33;;;;;;;7.98;75.76;98721.13;5013280;28;20560;-75
2023/12/23 03:36:42;;;;;;;8.77;2.10;;;;;;;7.98;75.97;98721.97;4996164;28;20066;-76
2023/12/23 03:39:09;;;;;;;10.15;1.77;;;;;;;7.99;75.98;98722.81;4994390;28;20058;-75
2023/12/23 03:41:36;;;;;;;6.43;1.60;;;;;;;7.98;75.84;98714.09;5022263;28;20053;-77
2023/12/23 03:44:02;;;;;;;9.52;1.40;;;;;;;7.99;75.98;98723.66;5032728;28;20131;-78
2023/12/23 03:46:30;;;;;;;4.65;0.90;;;;;;;7.98;76.10;98721.13;5032653;28;20049;-76
2023/12/23 03:48:56;;;;;;;6.95;1.10;;;;;;;7.97;76.11;98698.47;5032965;28;20096;-76
2023/12/23 03:51:24;;;;;;;4.80;0.95;;;;;;;7.95;75.71;98695.94;5027323;28;20156;-78
2023/12/23 03:53:51;;;;;;;11.10;1.60;;;;;;;7.93;76.07;98685.56;4995690;28;20100;-76
2023/12/23 03:56:19;;;;;;;6.93;1.33;;;;;;;7.91;76.21;98692.69;4995258;28;20141;-78
2023/12/23 03:58:46;;;;;;;4.55;0.95;;;;;;;7.90;76.36;98695.41;5012777;28;20050;-77
2023/12/23 04:01:15;;;;;;;5.72;1.02;;;;;;;7.87;75.96;98699.06;5013567;28;20144;-76
2023/12/23 04:03:42;;;;;;;7.00;1.10;;;;;;;7.85;76.54;98694.88;5030975;28;20597;-77
2023/12/23 04:06:11;;;;;;;11.80;1.85;;;;;;;7.82;76.34;98696.72;5032567;28;20050;-76
2023/12/23 04:08:39;;;;;;;3.03;0.75;;;;;;;7.80;76.21;98693.38;5032354;28;20060;-78
2023/12/23 04:11:06;;;;;;;4.93;1.13;;;;;;;7.78;76.39;98691.78;5032198;28;20049;-78
2023/12/23 04:13:33;;;;;;;3.88;0.90;;;;;;;7.75;76.59;98679.72;5015026;28;20050;-77
2023/12/23 04:16:06;;;;;;;2.83;0.90;;;;;;;7.70;76.34;98668.66;4995109;28;20042;-77
2023/12/23 04:18:32;;;;;;;8.13;0.95;;;;;;;7.69;76.57;98675.72;5012136;28;20120;-76
2023/12/23 04:20:59;;;;;;;7.45;1.45;;;;;;;7.67;76.80;98671.50;5012747;28;20423;-77
2023/12/23 04:23:26;;;;;;;2.30;0.75;;;;;;;7.65;76.62;98658.50;5031705;28;20414;-77
2023/12/23 04:25:52;;;;;;;6.50;1.13;;;;;;;7.62;77.15;98658.69;5025556;28;20053;-75
2023/12/23 04:28:24;;;;;;;5.50;1.13;;;;;;;7.62;77.08;98639.53;5011925;28;20046;-78
2023/12/23 04:30:54;;;;;;;9.95;1.38;;;;;;;7.60;77.22;98633.53;4994761;28;20050;-76
2023/12/23 04:33:21;;;;;;;6.32;1.00;;;;;;;7.60;77.42;98638.75;4995453;28;20050;-77
2023/12/23 04:35:49;;;;;;;5.75;0.98;;;;;;;7.58;77.37;98633.63;4996227;28;20042;-75
2023/12/23 04:38:16;;;;;;;5.85;1.00;;;;;;;7.57;77.48;98626.72;5031099;28;20219;-77
2023/12/23 04:40:45;;;;;;;7.22;1.05;;;;;;;7.56;77.64;98620.63;5031752;28;20065;-77
2023/12/23 04:43:11;;;;;;;4.65;0.93;;;;;;;7.56;77.79;98606.69;5031920;28;20053;-76
2023/12/23 04:45:38;;;;;;;4.43;1.13;;;;;;;7.56;77.88;98596.22;5014018;28;20049;-76
2023/12/23 04:48:05;;;;;;;5.97;1.20;;;;;;;7.55;77.63;98598.00;5013922;28;20050;-80
2023/12/23 04:50:33;;;;;;;2.72;0.70;;;;;;;7.54;77.48;98587.63;5011552;28;20526;-76
2023/12/23 04:53:00;;;;;;;2.40;0.52;;;;;;;7.53;77.86;98586.78;5011719;28;20046;-76
2023/12/23 04:55:26;;;;;;;4.15;1.08;;;;;;;7.51;77.60;98588.66;4994709;28;20145;-75
2023/12/23 04:57:53;;;;;;;5.78;1.40;;;;;;;7.50;78.01;98588.75;5024411;28;20049;-76
2023/12/23 05:00:19;;;;;;;4.97;1.20;;;;;;;7.49;77.99;98584.44;5014070;28;20057;-77
2023/12/23 05:02:46;;;;;;;2.45;1.15;;;;;;;7.48;78.18;98583.59;5031367;28;20061;-77
2023/12/23 05:05:13;;;;;;;4.45;0.95;;;;;;;7.49;78.37;98568.75;5013810;28;20065;-77
2023/12/23 05:07:40;;;;;;;1.83;0.88;;;;;;;7.48;78.56;98559.22;5005226;28;20457;-76
2023/12/23 05:10:07;;;;;;;4.70;1.17;;;;;;;7.48;78.45;98557.41;4994464;28;20050;-77
2023/12/23 05:12:33;;;;;;;1.52;0.80;;;;;;;7.48;78.45;98552.19;5011786;28;20049;-76
2023/12/23 05:15:00;;;;;;;1.92;0.90;;;;;;;7.48;78.47;98543.50;5011584;28;20145;-78
2023/12/23 05:17:26;;;;;;;2.28;0.80;;;;;;;7.48;78.63;98540.88;4997863;28;20107;-78
2023/12/23 05:19:55;;;;;;;2.08;0.80;;;;;;;7.48;78.92;98531.22;5013049;28;20068;-75
2023/12/23 05:22:22;;;;;;;1.77;0.80;;;;;;;7.49;78.82;98512.00;5031110;28;20065;-76
2023/12/23 05:24:48;;;;;;;2.10;0.88;;;;;;;7.50;79.11;98525.91;5031342;28;20072;-78
2023/12/23 05:27:15;;;;;;;3.63;0.90;;;;;;;7.51;78.95;98504.03;5030999;28;20049;-76
2023/12/23 05:29:45;;;;;;;4.22;1.40;;;;;;;7.51;79.09;98504.03;5012577;28;20055;-76
2023/12/23 05:32:12;;;;;;;2.00;0.80;;;;;;;7.51;78.83;98490.94;5010952;28;20132;-77
2023/12/23 05:34:38;;;;;;;1.77;0.80;;;;;;;7.49;78.84;98484.94;5011184;28;20053;-77
2023/12/23 05:37:05;;;;;;;1.30;0.88;;;;;;;7.48;78.65;98468.38;5011272;28;20053;-76
2023/12/23 05:39:31;;;;;;;1.85;1.50;;;;;;;7.48;78.66;98465.78;5023696;28;21055;-77
2023/12/23 05:41:59;;;;;;;6.68;1.33;;;;;;;7.47;78.67;98453.63;5030894;28;20144;-76
2023/12/23 05:44:25;;;;;;;1.67;1.30;;;;;;;7.46;78.84;98456.34;5031018;28;20398;-76
2023/12/23 05:46:52;;;;;;;1.30;1.20;;;;;;;7.43;79.06;98450.38;5013128;28;20085;-76
2023/12/23 05:49:19;;;;;;;1.50;1.40;;;;;;;7.42;78.80;98443.47;5020833;28;20104;-76
2023/12/23 05:51:53;;;;;;;2.17;1.40;;;;;;;7.41;79.20;98447.00;4993916;28;20136;-77
2023/12/23 05:54:19;;;;;;;1.65;1.25;;;;;;;7.40;79.05;98437.47;4993645;28;20132;-77
2023/12/23 05:56:46;;;;;;;7.88;1.23;;;;;;;7.41;79.42;98427.88;5010899;28;20061;-78
2023/12/23 05:59:12;;;;;;;2.90;1.50;;;;;;;7.40;79.19;98421.78;4998245;28;20414;-77
2023/12/23 06:01:39;;;;;;;3.38;1.50;;;;;;;7.41;79.51;98423.44;5013014;28;20127;-77
2023/12/23 06:04:06;;;;;;;1.33;1.05;;;;;;;7.41;79.41;98417.38;5034129;28;20068;-76
2023/12/23 06:06:32;;;;;;;1.58;1.30;;;;;;;7.40;79.58;98405.25;5034817;28;20085;-76
2023/12/23 06:08:59;;;;;;;1.77;1.27;;;;;;;7.40;79.65;98395.59;5032845;28;20672;-75
2023/12/23 06:11:26;;;;;;;1.88;1.30;;;;;;;7.40;80.09;98389.53;5014191;28;20112;-79
2023/12/23 06:13:52;;;;;;;1.45;1.10;;;;;;;7.42;80.67;98393.72;5014898;28;20057;-80
2023/12/23 06:16:19;;;;;;;1.40;1.30;;;;;;;7.45;80.80;98390.06;5015130;28;20092;-80
2023/12/23 06:18:45;;;;;;;1.45;1.10;;;;;;;7.49;81.26;98381.06;5014345;28;20481;-79
2023/12/23 06:21:12;;;;;;;1.50;1.40;;;;;;;7.54;81.67;98373.75;5022475;28;20046;-80
2023/12/23 06:23:39;;;;;;;1.42;1.33;;;;;;;7.60;82.33;98377.75;5014918;28;20081;-79
2023/12/23 06:26:05;;;;;;;2.20;1.50;;;;;;;7.67;82.48;98365.88;5014702;28;20499;-79
2023/12/23 06:28:32;;;;;;;2.60;1.60;;;;;;;7.74;82.74;98347.16;4997041;28;20898;-79
2023/12/23 06:30:58;;;;;;;2.22;1.52;;;;;;;7.83;82.93;98349.13;5025881;28;20096;-80
2023/12/23 06:33:25;;;;;;;1.35;1.10;;;;;;;7.91;83.65;98343.38;5033778;28;20053;-80
2023/12/23 06:35:51;;;;;;;2.00;1.45;;;;;;;8.02;83.99;98345.25;5033218;28;20585;-80
2023/12/23 06:38:18;;;;;;;3.67;1.30;;;;;;;8.13;83.80;98342.72;5015575;28;20056;-80
2023/12/23 06:40:45;;;;;;;1.70;1.30;;;;;;;8.24;84.08;98347.22;5032647;28;20060;-80
2023/12/23 06:43:11;;;;;;;2.33;1.50;;;;;;;8.35;84.71;98349.06;5032549;28;20087;-80
2023/12/23 06:45:59;;;;;;;2.92;1.40;;;;;;;8.50;84.94;98339.28;5033401;28;20050;-80
2023/12/23 06:48:26;;;;;;;3.20;1.27;;;;;;;8.62;85.06;98337.59;5033191;28;20459;-80
2023/12/23 06:50:57;;;;;;;3.60;1.70;;;;;;;8.74;85.30;98330.63;5010955;28;20046;-80
2023/12/23 06:53:24;;;;;;;1.63;1.00;;;;;;;8.86;85.61;98323.66;5014438;28;20057;-79
2023/12/23 06:55:50;;;;;;;3.10;1.38;;;;;;;8.98;85.43;98325.34;5014206;28;20062;-80
2023/12/23 06:58:17;;;;;;;2.78;1.40;;;;;;;9.11;85.47;98338.44;5014209;28;20049;-80
2023/12/23 07:00:44;;;;;;;5.20;1.08;;;;;;;9.20;85.24;98326.41;5015419;28;20132;-80
2023/12/23 07:03:10;;;;;;;2.72;1.00;;;;;;;9.30;85.18;98334.44;5015608;28;20395;-79
2023/12/23 07:05:37;;;;;;;2.80;1.20;;;;;;;9.37;85.06;98333.03;5033236;28;20041;-80
2023/12/23 07:08:04;;;;;;;1.92;1.00;;;;;;;9.46;84.91;98310.47;5033358;28;20054;-80
2023/12/23 07:10:30;;;;;;;3.50;1.10;;;;;;;9.55;84.79;98326.50;5033565;28;20552;-83
2023/12/23 07:12:57;;;;;;;1.55;0.80;;;;;;;9.61;84.66;98336.53;5017053;28;20088;-79
2023/12/23 07:15:23;;;;;;;2.95;0.80;;;;;;;9.66;84.53;98318.63;4996186;28;20533;-80
2023/12/23 07:17:50;;;;;;;1.92;1.00;;;;;;;9.73;84.09;98330.34;4995397;28;20120;-80
2023/12/23 07:20:17;;;;;;;2.42;1.10;;;;;;;9.77;84.53;98336.19;5012056;28;20160;-80
2023/12/23 07:22:44;;;;;;;2.28;0.90;;;;;;;9.82;84.32;98351.59;5002195;28;20058;-80
2023/12/23 07:25:10;;;;;;;3.45;0.90;;;;;;;9.87;84.54;98344.22;4995388;28;20057;-80
2023/12/23 07:27:37;;;;;;;2.75;1.00;;;;;;;9.92;84.36;98339.44;5012444;28;20057;-80
2023/12/23 07:30:04;;;;;;;2.10;0.90;;;;;;;9.96;84.27;98351.41;5012921;28;20521;-84
2023/12/23 07:32:31;;;;;;;4.50;1.27;;;;;;;9.99;84.04;98332.72;5010706;28;20045;-79
2023/12/23 07:34:57;;;;;;;4.25;0.93;;;;;;;10.01;84.07;98348.41;5032833;28;20049;-79
2023/12/23 07:37:24;;;;;;;5.38;1.55;;;;;;;10.04;84.14;98342.91;5012525;28;20096;-80
2023/12/23 07:39:51;;;;;;;4.75;1.52;;;;;;;10.08;84.32;98339.09;5013657;28;20057;-79
2023/12/23 07:42:17;;;;;;;4.75;1.67;;;;;;;10.11;84.14;98336.22;5012629;28;20050;-80
2023/12/23 07:44:44;;;;;;;6.85;1.40;;;;;;;10.12;84.09;98337.88;4995370;28;20046;-79
2023/12/23 07:47:12;;;;;;;4.70;1.38;;;;;;;10.16;83.96;98341.97;5022158;28;20171;-80
2023/12/23 07:49:39;;;;;;;3.85;1.40;;;;;;;10.18;84.20;98339.22;5033438;28;20181;-79
2023/12/23 07:52:07;;;;;;;4.32;1.17;;;;;;;10.21;83.89;98353.91;5032073;28;20132;-82
2023/12/23 07:54:35;;;;;;;5.53;1.42;;;;;;;10.22;83.96;98343.28;5031294;28;20045;-80
2023/12/23 07:57:01;;;;;;;4.53;1.30;;;;;;;10.25;83.99;98347.44;5027305;28;20096;-79
2023/12/23 07:59:28;;;;;;;4.00;1.48;;;;;;;10.27;83.96;98341.13;5014846;28;20128;-80
2023/12/23 08:01:54;;;;;;;5.82;1.95;;;;;;;10.29;83.87;98333.91;5012470;28;20601;-79
2023/12/23 08:04:21;;;;;;;5.20;1.63;;;;;;;10.30;83.98;98333.00;5012836;28;20081;-80
2023/12/23 08:06:48;;;;;;;6.38;1.48;;;;;;;10.33;83.93;98341.59;5012194;28;20052;-80
2023/12/23 08:09:14;;;;;;;4.95;1.70;;;;;;;10.37;83.90;98345.63;5030324;28;20057;-80
2023/12/23 08:11:41;;;;;;;6.50;1.40;;;;;;;10.38;83.75;98357.81;5030685;28;20054;-80
2023/12/23 08:14:07;;;;;;;3.45;1.50;;;;;;;10.40;83.67;98345.41;5030774;28;20085;-80
2023/12/23 08:16:34;;;;;;;6.78;1.50;;;;;;;10.41;83.73;98360.22;5014532;28;20412;-81
2023/12/23 08:19:02;;;;;;;5.32;1.58;;;;;;;10.42;83.84;98375.91;5038328;28;20056;-80
2023/12/23 08:21:28;;;;;;;4.88;1.33;;;;;;;10.45;83.84;98361.69;5030246;28;20274;-79
2023/12/23 08:23:55;;;;;;;5.78;1.60;;;;;;;10.46;83.76;98355.47;5052249;28;20080;-80
2023/12/23 08:26:22;;;;;;;3.35;1.35;;;;;;;10.48;83.74;98363.25;5051558;28;20076;-79
2023/12/23 08:28:48;;;;;;;4.03;1.58;;;;;;;10.50;83.64;98362.16;5038005;28;20046;-79
2023/12/23 08:31:15;;;;;;;4.43;1.17;;;;;;;10.50;83.78;98354.25;5031939;28;20041;-79
2023/12/23 08:33:41;;;;;;;4.45;1.38;;;;;;;10.53;83.77;98366.34;5031979;28;20089;-79
2023/12/23 08:36:08;;;;;;;5.45;1.90;;;;;;;10.54;83.95;98371.47;5032011;28;20057;-80
2023/12/23 08:38:34;;;;;;;4.20;1.80;;;;;;;10.57;83.77;98345.91;5024491;28;20125;-79
2023/12/23 08:41:01;;;;;;;5.88;1.63;;;;;;;10.59;83.73;98372.91;5012347;28;20042;-79
2023/12/23 08:43:28;;;;;;;5.63;1.40;;;;;;;10.59;83.66;98365.00;5012039;28;20141;-79
2023/12/23 08:45:54;;;;;;;7.75;1.92;;;;;;;10.60;83.71;98371.94;5011976;28;20058;-79
2023/12/23 08:48:21;;;;;;;7.20;1.65;;;;;;;10.62;83.58;98365.59;5012753;28;20504;-79
2023/12/23 08:50:47;;;;;;;4.82;1.27;;;;;;;10.64;83.51;98341.78;5011699;28;20050;-79
2023/12/23 08:53:16;;;;;;;6.85;1.45;;;;;;;10.66;83.58;98379.38;5011906;28;20722;-80
2023/12/23 08:55:44;;;;;;;5.32;1.35;;;;;;;10.66;83.50;98374.09;5011914;28;20060;-79
2023/12/23 08:58:14;;;;;;;6.72;1.60;;;;;;;10.65;83.25;98383.78;5008369;28;20049;-79
2023/12/23 09:00:41;;;;;;;4.70;1.60;;;;;;;10.67;83.46;98387.16;5031033;28;20049;-79
2023/12/23 09:03:08;;;;;;;6.80;1.48;;;;;;;10.67;83.49;98389.78;5031702;28;20113;-79
2023/12/23 09:05:34;;;;;;;7.00;1.17;;;;;;;10.69;83.42;98392.25;5031597;28;20099;-80
2023/12/23 09:08:01;;;;;;;4.68;1.33;;;;;;;10.70;83.33;98391.31;5020843;28;20459;-80
2023/12/23 09:10:28;;;;;;;3.83;1.30;;;;;;;10.71;83.47;98392.13;4994161;28;20510;-80
2023/12/23 09:12:54;;;;;;;7.60;1.77;;;;;;;10.71;83.40;98378.97;5011486;28;20054;-78
2023/12/23 09:15:21;;;;;;;3.60;1.58;;;;;;;10.70;83.39;98404.47;5011425;28;20076;-80
2023/12/23 09:17:47;;;;;;;5.60;1.83;;;;;;;10.71;83.59;98402.66;5016469;28;20501;-80
2023/12/23 09:20:15;;;;;;;4.65;1.50;;;;;;;10.71;83.38;98414.03;5030911;28;20046;-79
2023/12/23 09:22:41;;;;;;;4.72;1.80;;;;;;;10.71;83.45;98411.41;5031088;28;20053;-80
2023/12/23 09:25:08;;;;;;;3.08;1.35;;;;;;;10.71;83.43;98406.16;5013640;28;20477;-79
2023/12/23 09:27:35;;;;;;;6.68;1.80;;;;;;;10.73;83.48;98419.19;5029894;28;20096;-79
2023/12/23 09:30:02;;;;;;;7.30;2.30;;;;;;;10.74;83.48;98420.84;5011563;28;20062;-79
2023/12/23 09:32:28;;;;;;;12.30;2.70;;;;;;;10.74;83.41;98424.34;4993859;28;20053;-79
2023/12/23 09:34:55;;;;;;;8.10;2.15;;;;;;;10.75;83.42;98438.31;5011329;28;20045;-80
2023/12/23 09:37:21;;;;;;;6.18;1.73;;;;;;;10.77;83.42;98441.69;5004404;28;20042;-79
2023/12/23 09:39:48;;;;;;;8.98;2.28;;;;;;;10.77;83.48;98431.97;5031055;28;20136;-79
2023/12/23 09:42:15;;;;;;;8.75;2.20;;;;;;;10.77;83.60;98439.88;5030969;28;20099;-79
2023/12/23 09:44:43;;;;;;;9.82;1.85;;;;;;;10.77;83.29;98447.75;5031016;28;20130;-80
2023/12/23 09:47:10;;;;;;;7.20;1.67;;;;;;;10.77;83.31;98437.22;5022272;28;20438;-79
2023/12/23 09:49:37;;;;;;;5.43;1.70;;;;;;;10.78;83.29;98438.94;4993669;28;20101;-80
2023/12/23 09:52:04;;;;;;;3.22;1.27;;;;;;;10.79;83.41;98452.91;4993554;28;20148;-80
2023/12/23 09:54:37;;;;;;;9.75;1.85;;;;;;;10.76;83.19;98443.47;5011081;28;20507;-80
2023/12/23 09:57:04;;;;;;;8.73;2.00;;;;;;;10.79;83.43;98451.13;4997200;28;20099;-79
2023/12/23 09:59:31;;;;;;;7.53;2.00;;;;;;;10.77;83.41;98454.84;5004408;28;20103;-80
2023/12/23 10:01:57;;;;;;;5.55;1.30;;;;;;;10.79;83.36;98455.53;5011871;28;20050;-79
2023/12/23 10:04:24;;;;;;;6.05;1.48;;;;;;;10.80;83.24;98467.72;4993492;28;20057;-80
2023/12/23 10:06:52;;;;;;;5.85;1.60;;;;;;;10.79;83.38;98476.59;4993474;28;20050;-80
2023/12/23 10:09:18;;;;;;;4.88;1.23;;;;;;;10.79;83.32;98477.44;5024283;28;20210;-79
2023/12/23 10:11:45;;;;;;;7.22;1.42;;;;;;;10.80;83.27;98467.72;5030589;28;20096;-80
2023/12/23 10:14:12;;;;;;;4.97;1.50;;;;;;;10.80;83.28;98479.09;5030715;28;20115;-79
2023/12/23 10:16:40;;;;;;;4.18;1.20;;;;;;;10.80;83.14;98473.84;5030713;28;20057;-79
2023/12/23 10:19:10;;;;;;;5.53;1.67;;;;;;;10.80;83.25;98475.63;5020186;28;20046;-80
2023/12/23 10:21:37;;;;;;;6.70;1.58;;;;;;;10.81;83.30;98470.25;5010521;28;20132;-80
2023/12/23 10:24:04;;;;;;;8.07;1.63;;;;;;;10.81;83.25;98486.03;5010580;28;20145;-79
2023/12/23 10:26:30;;;;;;;3.58;1.30;;;;;;;10.81;83.20;98485.22;5011132;28;20050;-79
2023/12/23 10:29:04;;;;;;;5.45;1.25;;;;;;;10.79;82.99;98473.97;4998628;28;20624;-79
2023/12/23 10:31:33;;;;;;;7.63;1.60;;;;;;;10.82;83.15;98487.75;5029910;28;20498;-79
2023/12/23 10:34:05;;;;;;;5.82;1.63;;;;;;;10.81;83.04;98475.50;5030452;28;20081;-80
2023/12/23 10:36:32;;;;;;;6.20;1.40;;;;;;;10.82;83.03;98471.94;5030217;28;20050;-79
2023/12/23 10:39:02;;;;;;;3.95;1.27;;;;;;;10.82;82.93;98489.53;5011972;28;20053;-78
2023/12/23 10:41:44;;;;;;;3.45;1.50;;;;;;;10.80;82.78;98492.28;5028465;28;20107;-78
2023/12/23 10:44:11;;;;;;;5.38;1.38;;;;;;;10.82;83.18;98482.47;5030147;28;20081;-79
2023/12/23 10:46:40;;;;;;;4.88;1.30;;;;;;;10.82;83.19;98486.88;5030181;28;20132;-78
2023/12/23 10:49:07;;;;;;;6.90;1.65;;;;;;;10.81;83.11;98493.94;5030224;28;20049;-79
2023/12/23 10:51:34;;;;;;;5.72;1.13;;;;;;;10.81;83.20;98501.03;4996631;28;20426;-79
2023/12/23 10:54:02;;;;;;;5.20;1.15;;;;;;;10.81;83.10;98488.69;5014256;28;20100;-79
2023/12/23 10:56:29;;;;;;;6.47;1.73;;;;;;;10.80;83.28;98484.38;5013856;28;20511;-79
2023/12/23 10:58:56;;;;;;;5.40;1.38;;;;;;;10.81;83.05;98485.22;5013819;28;20054;-79
2023/12/23 11:01:28;;;;;;;3.47;1.23;;;;;;;10.81;82.96;98483.41;5021518;28;20045;-78
2023/12/23 11:04:00;;;;;;;6.05;1.20;;;;;;;10.84;83.25;98515.72;5013942;28;20178;-79
2023/12/23 11:06:34;;;;;;;7.05;1.70;;;;;;;10.82;83.03;98489.53;4996489;28;20060;-79
2023/12/23 11:09:01;;;;;;;4.70;1.33;;;;;;;10.85;83.28;98502.44;5013555;28;20053;-79
2023/12/23 11:11:29;;;;;;;6.28;1.63;;;;;;;10.84;83.13;98500.75;5003688;28;20647;-79
2023/12/23 11:13:57;;;;;;;8.32;2.28;;;;;;;10.86;83.35;98505.91;4996207;28;20103;-79
2023/12/23 11:16:24;;;;;;;6.78;1.67;;;;;;;10.86;83.19;98503.28;4996371;28;20132;-78
2023/12/23 11:18:54;;;;;;;7.35;1.70;;;;;;;10.85;83.07;98507.72;5013507;28;20089;-79
2023/12/23 11:21:21;;;;;;;3.92;1.38;;;;;;;10.87;83.27;98520.75;5023766;28;20434;-79
2023/12/23 11:23:48;;;;;;;5.05;1.48;;;;;;;10.84;82.99;98506.03;5033165;28;20084;-78
2023/12/23 11:26:40;;;;;;;6.30;1.98;;;;;;;10.82;82.76;98500.91;5033168;28;20103;-78
2023/12/23 11:29:08;;;;;;;6.13;1.70;;;;;;;10.88;83.12;98518.00;5015646;28;20054;-80
2023/12/23 11:31:35;;;;;;;4.55;1.50;;;;;;;10.88;83.12;98517.16;5024312;28;20137;-79
2023/12/23 11:34:12;;;;;;;4.40;1.55;;;;;;;10.85;82.76;98509.50;5032897;28;20080;-78
2023/12/23 11:36:40;;;;;;;3.65;1.38;;;;;;;10.89;83.17;98514.41;5015560;28;20087;-79
2023/12/23 11:41:51;;;;;;;6.38;1.80;;;;;;;10.90;82.98;98518.72;5296213;22;20469;-73